createdAt,value
2022-09-28T00:00:58.013Z,8.58
2022-09-28T00:03:27.961Z,8.58
2022-09-28T00:06:01.775Z,8.28
2022-09-28T00:08:29.153Z,8.34
2022-09-28T00:10:56.821Z,8.33
2022-09-28T00:13:24.525Z,8.54
2022-09-28T00:16:00.280Z,8.69
2022-09-28T00:18:29.129Z,8.76
2022-09-28T00:21:05.565Z,8.90
2022-09-28T00:23:33.477Z,8.87
2022-09-28T00:26:04.302Z,8.77
2022-09-28T00:28:31.921Z,8.79
2022-09-28T00:30:59.292Z,8.93
2022-09-28T00:33:26.705Z,8.99
2022-09-28T00:35:58.942Z,9.00
2022-09-28T00:38:30.108Z,9.02
2022-09-28T00:40:57.657Z,8.81
2022-09-28T00:43:25.533Z,8.86
2022-09-28T00:45:58.035Z,9.05
2022-09-28T00:48:29.032Z,9.02
2022-09-28T00:50:58.566Z,9.03
2022-09-28T00:53:27.864Z,9.11
2022-09-28T00:55:56.786Z,9.13
2022-09-28T00:58:27.401Z,9.00
2022-09-28T01:00:56.379Z,8.94
2022-09-28T01:03:23.931Z,8.52
2022-09-28T01:05:51.832Z,8.40
2022-09-28T01:08:21.984Z,8.49
2022-09-28T01:10:50.649Z,8.61
2022-09-28T01:13:20.934Z,8.53
2022-09-28T01:15:59.435Z,8.66
2022-09-28T01:18:32.558Z,8.88
2022-09-28T01:21:02.366Z,8.80
2022-09-28T01:23:44.557Z,8.73
2022-09-28T01:26:45.921Z,8.77
2022-09-28T01:29:18.793Z,8.90
2022-09-28T01:31:49.786Z,8.97
2022-09-28T01:34:20.973Z,8.87
2022-09-28T01:36:50.796Z,8.98
2022-09-28T01:39:20.985Z,8.95
2022-09-28T01:41:53.089Z,8.82
2022-09-28T01:44:22.162Z,8.79
2022-09-28T01:46:50.356Z,8.77
2022-09-28T01:49:19.968Z,8.89
2022-09-28T01:51:52.004Z,9.07
2022-09-28T01:54:23.354Z,9.15
2022-09-28T01:56:53.896Z,8.98
2022-09-28T01:59:24.142Z,9.07
2022-09-28T02:01:54.738Z,8.92
2022-09-28T02:04:24.789Z,9.02
2022-09-28T02:06:55.320Z,8.93
2022-09-28T02:09:28.463Z,8.69
2022-09-28T02:12:02.849Z,8.55
2022-09-28T02:14:31.572Z,8.45
2022-09-28T02:17:01.898Z,8.17
2022-09-28T02:19:32.738Z,8.09
2022-09-28T02:22:04.238Z,8.35
2022-09-28T02:24:37.914Z,8.24
2022-09-28T02:27:10.953Z,8.25
2022-09-28T02:29:38.299Z,8.18
2022-09-28T02:32:05.865Z,8.23
2022-09-28T02:34:33.969Z,8.36
2022-09-28T02:37:02.184Z,8.26
2022-09-28T02:39:30.056Z,8.44
2022-09-28T02:42:04.059Z,8.53
2022-09-28T02:44:44.668Z,8.54
2022-09-28T02:47:21.757Z,8.52
2022-09-28T02:49:52.578Z,8.63
2022-09-28T02:52:32.792Z,8.72
2022-09-28T02:55:13.731Z,8.79
2022-09-28T02:57:49.001Z,8.81
2022-09-28T03:00:20.124Z,8.81
2022-09-28T03:02:59.236Z,8.77
2022-09-28T03:05:32.719Z,8.78
2022-09-28T03:08:02.142Z,8.72
2022-09-28T03:10:35.860Z,8.81
2022-09-28T03:13:04.439Z,8.83
2022-09-28T03:15:34.641Z,8.89
2022-09-28T03:18:02.028Z,8.84
2022-09-28T03:20:31.189Z,8.88
2022-09-28T03:25:46.053Z,8.88
2022-09-28T03:28:13.428Z,8.89
2022-09-28T03:30:43.397Z,8.95
2022-09-28T03:33:11.010Z,8.88
2022-09-28T03:35:39.089Z,8.93
2022-09-28T03:38:06.549Z,8.91
2022-09-28T03:40:37.906Z,8.89
2022-09-28T03:43:05.296Z,8.91
2022-09-28T03:45:32.855Z,8.92
2022-09-28T03:48:01.902Z,8.84
2022-09-28T03:50:29.593Z,8.83
2022-09-28T03:52:56.937Z,8.77
2022-09-28T03:55:24.326Z,8.78
2022-09-28T03:57:55.577Z,8.82
2022-09-28T04:00:23.133Z,8.72
2022-09-28T04:02:50.735Z,8.78
2022-09-28T04:05:19.412Z,8.84
2022-09-28T04:07:48.314Z,8.88
2022-09-28T04:10:15.850Z,8.90
2022-09-28T04:12:43.262Z,8.70
2022-09-28T04:15:11.438Z,8.57
2022-09-28T04:17:40.360Z,8.65
2022-09-28T04:20:14.114Z,8.56
2022-09-28T04:22:49.465Z,8.57
2022-09-28T04:25:17.378Z,8.77
2022-09-28T04:28:07.446Z,8.70
2022-09-28T04:30:34.985Z,8.56
2022-09-28T04:33:02.432Z,8.67
2022-09-28T04:35:31.058Z,8.73
2022-09-28T04:37:59.811Z,8.73
2022-09-28T04:40:27.619Z,8.67
2022-09-28T04:42:55.925Z,8.58
2022-09-28T04:45:25.908Z,8.53
2022-09-28T04:47:55.306Z,8.52
2022-09-28T04:50:38.201Z,8.53
2022-09-28T04:53:22.643Z,8.42
2022-09-28T04:55:57.675Z,8.33
2022-09-28T04:58:25.213Z,8.34
2022-09-28T05:00:54.139Z,8.48
2022-09-28T05:03:42.081Z,8.38
2022-09-28T05:06:22.893Z,8.51
2022-09-28T05:08:58.139Z,8.45
2022-09-28T05:11:25.570Z,8.42
2022-09-28T05:13:52.940Z,8.52
2022-09-28T05:16:20.885Z,8.35
2022-09-28T05:19:08.233Z,8.29
2022-09-28T05:21:35.561Z,8.18
2022-09-28T05:24:07.373Z,8.23
2022-09-28T05:26:36.669Z,8.12
2022-09-28T05:29:04.994Z,8.26
2022-09-28T05:32:02.129Z,8.23
2022-09-28T05:34:36.628Z,8.18
2022-09-28T05:37:04.089Z,8.34
2022-09-28T05:39:32.957Z,8.40
2022-09-28T05:42:00.321Z,8.52
2022-09-28T05:44:27.733Z,8.45
2022-09-28T05:46:55.653Z,8.54
2022-09-28T05:49:24.198Z,8.62
2022-09-28T05:51:51.526Z,8.65
2022-09-28T05:54:18.985Z,8.77
2022-09-28T05:56:48.837Z,8.83
2022-09-28T05:59:17.263Z,8.64
2022-09-28T06:01:44.680Z,8.75
2022-09-28T06:04:12.787Z,8.59
2022-09-28T06:06:42.602Z,8.85
2022-09-28T06:09:13.157Z,8.95
2022-09-28T06:12:00.245Z,9.04
2022-09-28T06:14:35.766Z,9.15
2022-09-28T06:17:03.177Z,9.16
2022-09-28T06:19:30.709Z,9.23
2022-09-28T06:22:08.657Z,9.23
2022-09-28T06:24:44.364Z,9.10
2022-09-28T06:27:13.060Z,9.12
2022-09-28T06:29:40.409Z,9.26
2022-09-28T06:32:08.301Z,9.37
2022-09-28T06:34:37.853Z,9.47
2022-09-28T06:37:05.237Z,9.54
2022-09-28T06:39:33.212Z,9.63
2022-09-28T06:42:04.346Z,9.50
2022-09-28T06:44:52.989Z,9.63
2022-09-28T06:47:39.071Z,9.63
2022-09-28T06:50:22.182Z,9.84
2022-09-28T06:52:54.897Z,9.94
2022-09-28T06:55:48.979Z,10.00
2022-09-28T06:58:19.444Z,10.01
2022-09-28T07:00:48.841Z,10.09
2022-09-28T07:03:17.806Z,10.25
2022-09-28T07:06:20.565Z,10.33
2022-09-28T07:09:29.841Z,10.43
2022-09-28T07:12:18.110Z,10.52
2022-09-28T07:14:59.017Z,10.65
2022-09-28T07:17:30.063Z,10.81
2022-09-28T07:20:10.518Z,10.86
2022-09-28T07:22:45.078Z,10.83
2022-09-28T07:25:18.410Z,10.81
2022-09-28T07:28:09.369Z,10.75
2022-09-28T07:30:51.111Z,10.68
2022-09-28T07:33:39.741Z,10.59
2022-09-28T07:36:23.601Z,10.69
2022-09-28T07:38:53.989Z,10.78
2022-09-28T07:41:32.094Z,10.81
2022-09-28T07:44:05.351Z,10.87
2022-09-28T07:46:34.242Z,10.73
2022-09-28T07:49:11.356Z,10.72
2022-09-28T07:52:02.329Z,10.54
2022-09-28T07:54:30.173Z,10.55
2022-09-28T07:57:25.639Z,10.63
2022-09-28T08:00:16.779Z,10.73
2022-09-28T08:02:48.207Z,10.77
2022-09-28T08:05:26.957Z,10.63
2022-09-28T08:07:57.602Z,10.60
2022-09-28T08:10:25.081Z,10.51
2022-09-28T08:13:26.890Z,10.64
2022-09-28T08:16:16.102Z,10.62
2022-09-28T08:19:07.566Z,10.54
2022-09-28T08:21:47.215Z,10.55
2022-09-28T08:24:16.398Z,10.62
2022-09-28T08:26:44.638Z,10.54
2022-09-28T08:29:15.201Z,10.04
2022-09-28T08:32:01.577Z,10.22
2022-09-28T08:34:35.973Z,9.94
2022-09-28T08:37:26.393Z,10.21
2022-09-28T08:40:17.481Z,10.25
2022-09-28T08:43:25.557Z,10.17
2022-09-28T08:46:07.913Z,10.59
2022-09-28T08:49:20.666Z,10.85
2022-09-28T08:52:07.072Z,11.22
2022-09-28T08:54:50.478Z,11.48
2022-09-28T08:57:28.745Z,11.63
2022-09-28T08:59:58.385Z,11.54
2022-09-28T09:02:33.208Z,11.38
2022-09-28T09:05:21.964Z,11.44
2022-09-28T09:08:13.890Z,11.36
2022-09-28T09:10:51.674Z,11.15
2022-09-28T09:13:56.273Z,11.04
2022-09-28T09:16:33.908Z,11.15
2022-09-28T09:19:30.406Z,11.06
2022-09-28T09:22:17.820Z,10.85
2022-09-28T09:24:50.689Z,11.03
2022-09-28T09:27:41.934Z,10.99
2022-09-28T09:30:11.793Z,11.07
2022-09-28T09:32:49.369Z,11.21
2022-09-28T09:35:33.215Z,11.33
2022-09-28T09:38:36.564Z,11.41
2022-09-28T09:41:30.329Z,11.68
2022-09-28T09:44:29.529Z,12.01
2022-09-28T09:47:10.722Z,12.09
2022-09-28T09:49:49.766Z,12.18
2022-09-28T09:53:12.313Z,12.16
2022-09-28T09:56:53.754Z,12.42
2022-09-28T10:00:35.601Z,12.42
2022-09-28T10:04:16.865Z,12.22
2022-09-28T10:07:04.897Z,12.18
2022-09-28T10:09:37.905Z,12.43
2022-09-28T10:12:23.626Z,12.63
2022-09-28T10:14:52.345Z,12.83
2022-09-28T10:17:26.687Z,12.99
2022-09-28T10:20:13.714Z,13.49
2022-09-28T10:23:25.325Z,13.64
2022-09-28T10:25:55.246Z,13.96
2022-09-28T10:28:26.628Z,14.16
2022-09-28T10:30:54.129Z,13.37
2022-09-28T10:33:30.281Z,13.75
2022-09-28T10:35:57.778Z,14.41
2022-09-28T10:38:26.893Z,14.40
2022-09-28T10:41:10.813Z,13.88
2022-09-28T10:44:05.918Z,14.25
2022-09-28T10:47:34.025Z,14.18
2022-09-28T10:51:15.140Z,14.40
2022-09-28T10:54:56.306Z,14.66
2022-09-28T10:58:37.973Z,14.55
2022-09-28T11:02:19.326Z,14.73
2022-09-28T11:06:00.966Z,14.94
2022-09-28T11:09:45.576Z,14.03
2022-09-28T11:13:27.858Z,13.96
2022-09-28T11:17:09.017Z,13.10
2022-09-28T11:20:51.622Z,13.02
2022-09-28T11:24:33.405Z,12.91
2022-09-28T11:28:14.637Z,12.79
2022-09-28T11:31:55.584Z,12.27
2022-09-28T11:35:37.123Z,12.36
2022-09-28T11:39:19.044Z,12.38
2022-09-28T11:43:00.651Z,12.74
2022-09-28T11:46:41.979Z,13.21
2022-09-28T11:50:24.534Z,13.48
2022-09-28T11:53:21.086Z,13.19
2022-09-28T11:55:54.090Z,13.22
2022-09-28T11:58:27.140Z,13.60
2022-09-28T12:00:58.436Z,13.63
2022-09-28T12:03:40.277Z,13.85
2022-09-28T12:06:11.789Z,13.83
2022-09-28T12:08:42.290Z,13.34
2022-09-28T12:11:12.370Z,13.29
2022-09-28T12:14:19.973Z,13.62
2022-09-28T12:17:05.860Z,13.45
2022-09-28T12:19:38.588Z,13.74
2022-09-28T12:22:12.081Z,13.81
2022-09-28T12:24:43.449Z,13.88
2022-09-28T12:27:15.225Z,14.26
2022-09-28T12:29:47.313Z,14.63
2022-09-28T12:32:29.445Z,15.07
2022-09-28T12:34:57.001Z,14.96
2022-09-28T12:37:36.745Z,15.27
2022-09-28T12:40:27.319Z,15.18
2022-09-28T12:43:20.023Z,14.49
2022-09-28T12:46:11.549Z,14.19
2022-09-28T12:49:40.965Z,13.74
2022-09-28T12:51:49.115Z,12.94
2022-09-28T12:54:31.506Z,12.22
2022-09-28T12:57:07.934Z,11.59
2022-09-28T12:59:39.478Z,11.48
2022-09-28T13:02:36.772Z,11.39
2022-09-28T13:05:17.418Z,11.47
2022-09-28T13:07:49.870Z,11.47
2022-09-28T13:10:21.699Z,11.42
2022-09-28T13:13:03.126Z,11.51
2022-09-28T13:15:37.653Z,11.70
2022-09-28T13:18:10.428Z,11.71
2022-09-28T13:20:48.411Z,11.63
2022-09-28T13:23:19.698Z,11.69
2022-09-28T13:25:51.961Z,11.73
2022-09-28T13:28:26.202Z,11.81
2022-09-28T13:30:56.188Z,11.86
2022-09-28T13:33:30.926Z,12.01
2022-09-28T13:35:58.334Z,12.02
2022-09-28T13:38:49.392Z,12.16
2022-09-28T13:41:19.551Z,12.20
2022-09-28T13:44:16.385Z,12.25
2022-09-28T13:46:50.385Z,12.25
2022-09-28T13:49:23.886Z,12.56
2022-09-28T13:54:57.491Z,13.12
2022-09-28T13:57:28.814Z,13.35
2022-09-28T14:00:10.355Z,13.64
2022-09-28T14:02:43.832Z,13.65
2022-09-28T14:05:41.568Z,13.90
2022-09-28T14:08:28.320Z,14.06
2022-09-28T14:10:56.605Z,14.04
2022-09-28T14:14:00.489Z,13.93
2022-09-28T14:16:31.770Z,13.53
2022-09-28T14:19:02.255Z,13.63
2022-09-28T14:21:54.109Z,14.09
2022-09-28T14:24:32.769Z,14.48
2022-09-28T14:27:36.892Z,14.80
2022-09-28T14:30:18.573Z,14.51
2022-09-28T14:32:53.553Z,14.45
2022-09-28T14:35:31.167Z,14.58
2022-09-28T14:38:19.502Z,14.44
2022-09-28T14:41:10.957Z,14.17
2022-09-28T14:43:53.865Z,13.69
2022-09-28T14:46:30.785Z,13.65
2022-09-28T14:49:03.588Z,13.47
2022-09-28T14:52:02.729Z,13.54
2022-09-28T14:54:39.468Z,13.52
2022-09-28T14:57:12.683Z,13.61
2022-09-28T14:59:44.077Z,13.58
2022-09-28T15:02:17.338Z,13.54
2022-09-28T15:04:48.008Z,13.41
2022-09-28T15:07:21.340Z,13.39
2022-09-28T15:09:50.535Z,13.27
2022-09-28T15:12:19.718Z,13.37
2022-09-28T15:14:50.396Z,13.51
2022-09-28T15:17:21.738Z,13.58
2022-09-28T15:19:54.812Z,13.73
2022-09-28T15:22:22.733Z,13.82
2022-09-28T15:25:00.016Z,13.84
2022-09-28T15:27:35.294Z,13.70
2022-09-28T15:30:24.239Z,13.75
2022-09-28T15:32:53.889Z,13.73
2022-09-28T15:35:24.047Z,13.74
2022-09-28T15:37:52.244Z,13.79
2022-09-28T15:40:25.290Z,13.93
2022-09-28T15:42:57.062Z,13.96
2022-09-28T15:45:28.540Z,14.02
2022-09-28T15:48:18.268Z,13.96
2022-09-28T15:50:58.134Z,13.98
2022-09-28T15:53:25.694Z,13.97
2022-09-28T15:55:55.642Z,13.93
2022-09-28T15:58:24.461Z,13.83
2022-09-28T16:01:12.813Z,13.74
2022-09-28T16:03:40.341Z,13.62
2022-09-28T16:06:10.584Z,13.56
2022-09-28T16:08:39.689Z,13.47
2022-09-28T16:11:11.998Z,13.30
2022-09-28T16:13:47.321Z,13.33
2022-09-28T16:16:16.373Z,13.15
2022-09-28T16:18:48.281Z,13.20
2022-09-28T16:21:31.477Z,13.15
2022-09-28T16:23:59.254Z,13.12
2022-09-28T16:26:31.072Z,12.76
2022-09-28T16:28:59.023Z,12.81
2022-09-28T16:31:34.254Z,12.73
2022-09-28T16:34:11.754Z,12.46
2022-09-28T16:36:45.251Z,12.57
2022-09-28T16:39:13.426Z,12.64
2022-09-28T16:41:41.631Z,12.58
2022-09-28T16:44:15.989Z,12.45
2022-09-28T16:46:44.582Z,12.35
2022-09-28T16:49:18.613Z,12.17
2022-09-28T16:51:48.177Z,11.93
2022-09-28T16:54:35.218Z,11.80
2022-09-28T16:57:03.174Z,11.59
2022-09-28T16:59:31.125Z,11.41
2022-09-28T17:01:58.844Z,11.29
2022-09-28T17:04:26.989Z,11.13
2022-09-28T17:06:56.651Z,10.93
2022-09-28T17:09:26.329Z,10.78
2022-09-28T17:11:56.867Z,10.53
2022-09-28T17:15:19.557Z,10.51
2022-09-28T17:19:00.833Z,10.14
2022-09-28T17:22:42.386Z,9.85
2022-09-28T17:26:23.938Z,9.61
2022-09-28T17:30:05.405Z,9.24
2022-09-28T17:33:47.215Z,9.02
2022-09-28T17:37:28.941Z,9.01
2022-09-28T17:41:10.151Z,8.81
2022-09-28T17:44:51.551Z,8.68
2022-09-28T17:48:33.252Z,8.51
2022-09-28T17:52:14.622Z,8.41
2022-09-28T17:55:55.965Z,8.30
2022-09-28T17:59:37.242Z,8.07
2022-09-28T18:03:19.021Z,8.12
2022-09-28T18:06:59.774Z,7.88
2022-09-28T18:10:41.196Z,7.72
2022-09-28T18:14:22.852Z,7.73
2022-09-28T18:18:04.360Z,7.70
2022-09-28T18:21:45.717Z,7.53
2022-09-28T18:25:27.153Z,7.56
2022-09-28T18:29:08.654Z,7.48
2022-09-28T18:32:50.217Z,7.42
2022-09-28T18:36:31.886Z,7.31
2022-09-28T18:40:12.625Z,7.29
2022-09-28T18:43:53.874Z,7.32
2022-09-28T18:47:35.415Z,7.55
2022-09-28T18:51:17.149Z,7.80
2022-09-28T18:54:58.356Z,7.97
2022-09-28T18:58:39.700Z,8.05
2022-09-28T19:02:21.321Z,8.03
2022-09-28T19:06:02.177Z,8.14
2022-09-28T19:09:43.467Z,8.09
2022-09-28T19:12:40.373Z,8.10
2022-09-28T19:15:08.689Z,8.00
2022-09-28T19:17:36.061Z,8.11
2022-09-28T19:20:03.574Z,8.14
2022-09-28T19:22:31.257Z,8.26
2022-09-28T19:24:58.598Z,8.33
2022-09-28T19:27:25.964Z,8.39
2022-09-28T19:29:54.644Z,8.24
2022-09-28T19:32:21.985Z,8.38
2022-09-28T19:34:49.497Z,8.36
2022-09-28T19:37:17.028Z,8.39
2022-09-28T19:39:45.259Z,8.18
2022-09-28T19:42:12.582Z,8.15
2022-09-28T19:44:40.232Z,8.20
2022-09-28T19:47:11.461Z,8.16
2022-09-28T19:49:40.093Z,8.23
2022-09-28T19:52:13.467Z,8.04
2022-09-28T19:54:43.698Z,8.04
2022-09-28T19:57:11.524Z,7.99
2022-09-28T19:59:39.063Z,7.97
2022-09-28T20:02:09.144Z,8.09
2022-09-28T20:04:36.500Z,8.01
2022-09-28T20:07:04.171Z,8.17
2022-09-28T20:09:32.342Z,8.29
2022-09-28T20:11:59.726Z,8.24
2022-09-28T20:14:32.014Z,8.15
2022-09-28T20:17:00.325Z,8.02
2022-09-28T20:19:29.038Z,8.18
2022-09-28T20:21:58.528Z,8.12
2022-09-28T20:24:28.596Z,8.19
2022-09-28T20:26:55.954Z,8.21
2022-09-28T20:29:24.137Z,8.25
2022-09-28T20:31:51.980Z,8.28
2022-09-28T20:34:19.495Z,8.11
2022-09-28T20:36:48.269Z,8.08
2022-09-28T20:39:15.825Z,8.27
2022-09-28T20:41:43.201Z,8.19
2022-09-28T20:44:10.597Z,8.05
2022-09-28T20:46:38.529Z,8.18
2022-09-28T20:49:07.057Z,8.10
2022-09-28T20:51:34.424Z,8.15
2022-09-28T20:54:03.117Z,8.22
2022-09-28T20:56:37.386Z,8.12
2022-09-28T20:59:05.138Z,8.08
2022-09-28T21:01:32.567Z,7.85
2022-09-28T21:04:01.404Z,7.90
2022-09-28T21:06:29.970Z,7.80
2022-09-28T21:08:57.443Z,7.71
2022-09-28T21:11:27.796Z,7.72
2022-09-28T21:13:56.996Z,7.92
2022-09-28T21:16:24.876Z,8.00
2022-09-28T21:18:52.631Z,8.18
2022-09-28T21:21:21.343Z,8.23
2022-09-28T21:23:48.998Z,8.25
2022-09-28T21:26:24.562Z,8.02
2022-09-28T21:28:53.852Z,8.00
2022-09-28T21:31:26.232Z,8.07
2022-09-28T21:33:56.040Z,8.06
2022-09-28T21:36:23.581Z,7.91
2022-09-28T21:38:51.085Z,7.90
2022-09-28T21:41:18.458Z,7.97
2022-09-28T21:43:46.433Z,7.98
2022-09-28T21:46:15.153Z,8.11
2022-09-28T21:48:42.549Z,8.10
2022-09-28T21:51:14.058Z,8.19
2022-09-28T21:53:42.504Z,8.30
2022-09-28T21:56:11.700Z,8.35
2022-09-28T21:58:39.961Z,8.25
2022-09-28T22:01:09.232Z,8.31
2022-09-28T22:03:37.980Z,7.97
2022-09-28T22:06:06.444Z,8.00
2022-09-28T22:08:33.862Z,8.05
2022-09-28T22:11:02.516Z,8.01
2022-09-28T22:13:30.334Z,8.11
2022-09-28T22:15:58.665Z,8.04
2022-09-28T22:18:26.778Z,7.97
2022-09-28T22:21:01.075Z,7.96
2022-09-28T22:23:28.801Z,8.10
2022-09-28T22:26:00.217Z,7.99
2022-09-28T22:28:27.880Z,8.19
2022-09-28T22:30:55.581Z,8.10
2022-09-28T22:33:22.933Z,8.03
2022-09-28T22:35:51.230Z,8.13
2022-09-28T22:38:20.745Z,8.12
2022-09-28T22:40:49.076Z,8.25
2022-09-28T22:43:16.776Z,8.28
2022-09-28T22:45:44.169Z,8.35
2022-09-28T22:48:11.720Z,8.42
2022-09-28T22:50:39.284Z,8.41
2022-09-28T22:53:06.923Z,8.56
2022-09-28T22:55:35.558Z,8.38
2022-09-28T22:58:02.907Z,8.61
2022-09-28T23:00:31.006Z,8.64
2022-09-28T23:02:58.397Z,8.42
2022-09-28T23:05:25.806Z,8.51
2022-09-28T23:07:53.166Z,8.64
2022-09-28T23:10:20.540Z,8.48
2022-09-28T23:12:49.454Z,8.46
2022-09-28T23:15:17.049Z,8.69
2022-09-28T23:17:44.381Z,8.80
2022-09-28T23:20:11.794Z,8.73
2022-09-28T23:22:39.149Z,8.87
2022-09-28T23:25:07.555Z,8.90
2022-09-28T23:27:34.882Z,9.18
2022-09-28T23:30:03.678Z,9.15
2022-09-28T23:32:32.150Z,8.79
2022-09-28T23:34:59.606Z,9.00
2022-09-28T23:37:26.919Z,8.90
2022-09-28T23:39:54.254Z,9.04
2022-09-28T23:42:21.671Z,8.86
2022-09-28T23:44:49.076Z,8.72
2022-09-28T23:47:17.778Z,8.92
2022-09-28T23:49:45.145Z,8.82
2022-09-28T23:52:12.447Z,8.81
2022-09-28T23:54:39.791Z,8.89
2022-09-28T23:57:07.149Z,8.78
2022-09-28T23:59:34.488Z,8.38
